Star Helena — V7KJ9 — position and weather

sailwx.info

Track history (hours):
 
Tides and Currents Weather Stations Pressure Air Temp Water Temp Dewpoint Dewpoint Depression Visibility Wind Speed Wind Dir Waves Ship Positions

Star Helena

Last reported at 2017-Feb-24 21:09 UTC. Time now 2017-Feb-25 14:05 UTC.
Position N 01°15' E 104°06'.

Length 229 m; draft 12.5 m.

Type: Cargo ship. MMSI: 538002630.

Date/timePositionNaut miles runAvg speedWind from/ knotsBaromVisibWave heightAir tempDewpointWater temp
2017-Feb-24 21:09N 01°15' E 104°06'5 8.1
2017-Feb-24 20:33N 01°15' E 104°01'4 3.5
2017-Feb-24 19:25N 01°16' E 103°58'0 0.0
2017-Feb-24 18:31N 01°16' E 103°58'0 0.0
2017-Feb-24 17:31N 01°16' E 103°58'0 0.0
2017-Feb-24 16:16N 01°16' E 103°58'0 0.0
2017-Feb-24 15:31N 01°16' E 103°58'0 0.1
2017-Feb-24 14:31N 01°16' E 103°58'0 0.0
2017-Feb-24 13:31N 01°16' E 103°58'0 0.0
2017-Feb-24 12:13N 01°16' E 103°58'0 0.3
2017-Feb-24 11:28N 01°16' E 103°58'0 0.1
2017-Feb-24 10:25N 01°16' E 103°58'0 0.0
2017-Feb-24 09:31N 01°16' E 103°58'0 0.1
2017-Feb-24 08:28N 01°16' E 103°58'0 0.0
2017-Feb-24 07:28N 01°16' E 103°58'0 0.0
2017-Feb-24 06:31N 01°16' E 103°58'0 0.0
2017-Feb-24 05:31N 01°16' E 103°58'0 0.0
2017-Feb-24 04:19N 01°16' E 103°58'0 0.0
2017-Feb-24 03:33N 01°16' E 103°58'1 1.0
2017-Feb-24 02:33N 01°16' E 103°57'3 2.8
2017-Feb-24 01:33N 01°13' E 103°56'4 4.5
2017-Feb-24 00:33N 01°12' E 103°51'5 5.5
2017-Feb-23 23:33N 01°09' E 103°47'8 8.3
2017-Feb-23 22:33N 01°03' E 103°40'8 7.9
2017-Feb-23 21:33N 01°06' E 103°33'8 8.0
2017-Feb-23 20:33N 01°11' E 103°26'9 8.1
2017-Feb-23 19:23N 01°16' E 103°19'57 9.3
2017-Feb-23 13:20N 01°46' E 102°31'810.1
2017-Feb-23 12:31N 01°49' E 102°23'  
Track history (hours):
 
Tides and Currents Weather Stations Pressure Air Temp Water Temp Dewpoint Dewpoint Depression Visibility Wind Speed Wind Dir Waves Ship Positions

Star Helena

Last reported at 2017-Feb-24 21:09 UTC. Time now 2017-Feb-25 14:05 UTC.
Position N 01°15' E 104°06'.

Length 229 m; draft 12.5 m.

Type: Cargo ship. MMSI: 538002630.

Date/timePositionNaut miles runAvg speedWind from/ knotsBaromVisibWave heightAir tempDewpointWater temp
2017-Feb-24 21:09N 01°15' E 104°06'5 8.1
2017-Feb-24 20:33N 01°15' E 104°01'4 3.5
2017-Feb-24 19:25N 01°16' E 103°58'0 0.0
2017-Feb-24 18:31N 01°16' E 103°58'0 0.0
2017-Feb-24 17:31N 01°16' E 103°58'0 0.0
2017-Feb-24 16:16N 01°16' E 103°58'0 0.0
2017-Feb-24 15:31N 01°16' E 103°58'0 0.1
2017-Feb-24 14:31N 01°16' E 103°58'0 0.0
2017-Feb-24 13:31N 01°16' E 103°58'0 0.0
2017-Feb-24 12:13N 01°16' E 103°58'0 0.3
2017-Feb-24 11:28N 01°16' E 103°58'0 0.1
2017-Feb-24 10:25N 01°16' E 103°58'0 0.0
2017-Feb-24 09:31N 01°16' E 103°58'0 0.1
2017-Feb-24 08:28N 01°16' E 103°58'0 0.0
2017-Feb-24 07:28N 01°16' E 103°58'0 0.0
2017-Feb-24 06:31N 01°16' E 103°58'0 0.0
2017-Feb-24 05:31N 01°16' E 103°58'0 0.0
2017-Feb-24 04:19N 01°16' E 103°58'0 0.0
2017-Feb-24 03:33N 01°16' E 103°58'1 1.0
2017-Feb-24 02:33N 01°16' E 103°57'3 2.8
2017-Feb-24 01:33N 01°13' E 103°56'4 4.5
2017-Feb-24 00:33N 01°12' E 103°51'5 5.5
2017-Feb-23 23:33N 01°09' E 103°47'8 8.3
2017-Feb-23 22:33N 01°03' E 103°40'8 7.9
2017-Feb-23 21:33N 01°06' E 103°33'8 8.0
2017-Feb-23 20:33N 01°11' E 103°26'9 8.1
2017-Feb-23 19:23N 01°16' E 103°19'57 9.3
2017-Feb-23 13:20N 01°46' E 102°31'810.1
2017-Feb-23 12:31N 01°49' E 102°23'  

Dump ship's entire track history